Arrow Rock, Missouri
Current Conditions -  °F | °C
As of 6:55 PM on Friday 28 Nov 2014 (Local Time) from KMHL Reporting Station
Clear Clear  
Wind Chill: 50°   Ceiling: Unl
Heat Index: 50°   Visibility: 10mi
Dew Point: 37°   Wind: 8mph
Humidity: 62%   Direction: 170°S
Pressure: 29.83"   Gusts: NA
Location:  39.07°N, 92.95°W
Report Text: KMHL 290055Z AUTO 17007KT 10SM CLR 10/03 A2983 RMK AO2
Loading
Personal Weather Stations






























Interactive Weather Map New forecast layout! Learn more

10-Day Weather Forecast

Advertisements
Track Severe Weather on mobile